Time;durP1;ratioP1;P1;durP2;ratioP2;P2;SDS_P1;SDS_P2;PMS_P1;PMS_P2;Temp;Humidity;BMP_temperature;BMP_pressure;BME280_temperature;BME280_humidity;BME280_pressure;Samples;Min_cycle;Max_cycle;Signal;HPM_P1;HPM_P2
2022/11/23 00:00:34;;;;;;;6.10;5.80;;;8.90;99.90;;;;;;4972907;28;20201;-66
2022/11/23 00:03:00;;;;;;;5.77;5.57;;;8.90;99.90;;;;;;4973050;28;20185;-67
2022/11/23 00:05:27;;;;;;;5.87;5.63;;;9.00;99.90;;;;;;4972965;28;20236;-66
2022/11/23 00:07:53;;;;;;;5.60;5.40;;;9.00;99.90;;;;;;4972680;28;20192;-66
2022/11/23 00:10:20;;;;;;;5.63;5.43;;;9.10;99.90;;;;;;4972395;28;20585;-66
2022/11/23 00:12:46;;;;;;;9.33;6.23;;;9.10;99.90;;;;;;4972995;28;20178;-66
2022/11/23 00:15:12;;;;;;;5.30;5.10;;;9.10;99.90;;;;;;4979316;28;20205;-66
2022/11/23 00:17:38;;;;;;;5.40;5.20;;;9.10;99.90;;;;;;4978243;28;20186;-66
2022/11/23 00:20:05;;;;;;;5.07;4.87;;;9.20;99.90;;;;;;4971949;28;20671;-66
2022/11/23 00:22:31;;;;;;;4.97;4.40;;;9.20;99.90;;;;;;4972565;28;20263;-66
2022/11/23 00:24:57;;;;;;;4.87;4.67;;;9.20;99.90;;;;;;4972711;28;20256;-66
2022/11/23 00:27:22;;;;;;;5.40;5.10;;;9.30;99.90;;;;;;4972571;28;20651;-66
2022/11/23 00:29:48;;;;;;;4.87;4.50;;;9.30;99.90;;;;;;4970067;28;20216;-67
2022/11/23 00:32:13;;;;;;;5.07;4.87;;;9.30;99.90;;;;;;4974586;28;20197;-66
2022/11/23 00:34:39;;;;;;;4.73;4.53;;;9.30;99.90;;;;;;4976591;28;20623;-67
2022/11/23 00:37:05;;;;;;;5.00;4.80;;;9.30;99.90;;;;;;4991421;28;20189;-67
2022/11/23 00:39:30;;;;;;;5.37;5.17;;;9.30;99.90;;;;;;4976276;28;20698;-67
2022/11/23 00:41:56;;;;;;;4.53;4.30;;;9.30;99.90;;;;;;4976261;28;20204;-67
2022/11/23 00:44:24;;;;;;;4.90;4.50;;;9.30;99.90;;;;;;4976240;28;20209;-66
2022/11/23 00:46:49;;;;;;;4.60;4.40;;;9.30;99.90;;;;;;4976493;28;20177;-66
2022/11/23 00:49:15;;;;;;;5.23;5.03;;;9.30;99.90;;;;;;4975914;28;20256;-67
2022/11/23 00:51:41;;;;;;;5.43;5.13;;;9.30;99.90;;;;;;4976147;28;20232;-67
2022/11/23 00:54:07;;;;;;;4.77;4.57;;;9.30;99.90;;;;;;4976193;28;20170;-67
2022/11/23 00:56:34;;;;;;;4.83;4.63;;;9.30;99.90;;;;;;4976164;28;20673;-68
2022/11/23 00:59:01;;;;;;;5.07;4.80;;;9.30;99.90;;;;;;4976268;28;20177;-67
2022/11/23 01:01:32;;;;;;;4.40;4.20;;;9.30;99.90;;;;;;4973642;28;20287;-67
2022/11/23 01:03:59;;;;;;;5.67;4.50;;;9.30;99.90;;;;;;4976083;28;20185;-66
2022/11/23 01:06:28;;;;;;;4.80;4.40;;;9.30;99.90;;;;;;4976006;28;20197;-67
2022/11/23 01:08:59;;;;;;;4.10;4.00;;;9.30;99.90;;;;;;4976116;28;20196;-67
2022/11/23 01:11:27;;;;;;;4.33;4.13;;;9.30;99.90;;;;;;4975534;28;20197;-66
2022/11/23 01:13:53;;;;;;;6.40;4.50;;;9.30;99.90;;;;;;4976121;28;20169;-67
2022/11/23 01:16:25;;;;;;;4.70;4.50;;;9.30;99.90;;;;;;4975900;28;20178;-66
2022/11/23 01:19:02;;;;;;;4.40;4.10;;;9.30;99.90;;;;;;4976122;28;20244;-67
2022/11/23 01:21:29;;;;;;;4.30;4.10;;;9.30;99.90;;;;;;4974309;28;20217;-67
2022/11/23 01:23:55;;;;;;;4.87;4.67;;;9.30;99.90;;;;;;4975770;28;20647;-67
2022/11/23 01:26:21;;;;;;;4.80;4.60;;;9.30;99.90;;;;;;4975363;28;20178;-66
2022/11/23 01:28:47;;;;;;;4.93;4.70;;;9.30;99.90;;;;;;4975726;28;20448;-67
2022/11/23 01:31:18;;;;;;;5.70;5.20;;;9.30;99.90;;;;;;4972946;28;20264;-67
2022/11/23 01:33:44;;;;;;;5.37;5.07;;;9.30;99.90;;;;;;4975478;28;20585;-67
2022/11/23 01:36:12;;;;;;;5.20;5.00;;;9.30;99.90;;;;;;4975359;28;20252;-67
2022/11/23 01:38:37;;;;;;;5.23;4.93;;;9.30;99.90;;;;;;4974222;28;20603;-67
2022/11/23 01:41:05;;;;;;;4.53;4.33;;;9.30;99.90;;;;;;4975191;28;20237;-67
2022/11/23 01:43:31;;;;;;;4.97;4.73;;;9.30;99.90;;;;;;4974199;28;20181;-67
2022/11/23 01:45:58;;;;;;;4.83;4.63;;;9.30;99.90;;;;;;4975564;28;20189;-67
2022/11/23 01:48:47;;;;;;;5.33;5.10;;;9.30;99.90;;;;;;4975278;28;20699;-67
2022/11/23 01:51:19;;;;;;;5.13;4.83;;;9.30;99.90;;;;;;4975126;28;20619;-67
2022/11/23 01:53:46;;;;;;;5.03;4.83;;;9.30;99.90;;;;;;4975253;28;20552;-67
2022/11/23 01:56:16;;;;;;;4.97;4.67;;;9.40;99.90;;;;;;4975101;28;20173;-67
2022/11/23 01:58:45;;;;;;;5.07;4.77;;;9.30;99.90;;;;;;4973956;28;20453;-67
2022/11/23 02:01:11;;;;;;;4.80;4.60;;;9.40;99.90;;;;;;4973428;28;20564;-67
2022/11/23 02:03:38;;;;;;;5.00;4.70;;;9.30;99.90;;;;;;4972829;28;20639;-67
2022/11/23 02:06:10;;;;;;;5.30;5.00;;;9.30;99.90;;;;;;4975155;28;20651;-67
2022/11/23 02:08:36;;;;;;;4.97;4.77;;;9.30;99.90;;;;;;4974895;28;20193;-67
2022/11/23 02:11:02;;;;;;;4.60;4.33;;;9.30;99.90;;;;;;4974371;28;20551;-67
2022/11/23 02:13:28;;;;;;;5.30;5.00;;;9.30;99.90;;;;;;4974782;28;20204;-67
2022/11/23 02:15:56;;;;;;;4.97;4.77;;;9.40;99.90;;;;;;4974777;28;20201;-67
2022/11/23 02:18:25;;;;;;;4.80;4.60;;;9.30;99.90;;;;;;4974523;28;20177;-67
2022/11/23 02:20:52;;;;;;;5.00;4.77;;;9.30;99.90;;;;;;4974392;28;20701;-67
2022/11/23 02:23:50;;;;;;;4.80;4.60;;;9.30;99.90;;;;;;4974485;28;20587;-67
2022/11/23 02:26:24;;;;;;;5.67;5.27;;;9.30;99.90;;;;;;4974452;28;20220;-67
2022/11/23 02:28:56;;;;;;;5.27;5.03;;;9.20;99.90;;;;;;4974517;28;20174;-67
2022/11/23 02:31:21;;;;;;;5.80;5.40;;;9.20;99.90;;;;;;4974065;28;20189;-67
2022/11/23 02:33:47;;;;;;;5.63;4.83;;;9.20;99.90;;;;;;4972446;28;20227;-67
2022/11/23 02:36:33;;;;;;;6.00;4.73;;;9.10;99.90;;;;;;4974106;28;20169;-67
2022/11/23 02:39:02;;;;;;;9.23;5.20;;;9.00;99.90;;;;;;4974410;28;20184;-67
2022/11/23 02:41:34;;;;;;;5.13;4.93;;;9.00;99.90;;;;;;4973906;28;20201;-66
2022/11/23 02:44:02;;;;;;;8.60;5.13;;;8.90;99.90;;;;;;4974321;28;20173;-67
2022/11/23 02:46:28;;;;;;;5.80;5.50;;;8.90;99.90;;;;;;4972755;28;20655;-67
2022/11/23 02:48:54;;;;;;;6.17;5.67;;;8.90;99.90;;;;;;4974173;28;20177;-67
2022/11/23 02:51:19;;;;;;;5.63;5.33;;;8.90;99.90;;;;;;4973748;28;20581;-67
2022/11/23 02:53:45;;;;;;;5.83;5.53;;;8.90;99.90;;;;;;4974252;28;20320;-67
2022/11/23 02:56:10;;;;;;;5.30;5.00;;;8.90;99.90;;;;;;4973482;28;20244;-67
2022/11/23 02:58:36;;;;;;;5.50;5.13;;;8.90;99.90;;;;;;4974034;28;20185;-67
2022/11/23 03:01:01;;;;;;;5.87;5.57;;;8.90;99.90;;;;;;4973511;28;20197;-67
2022/11/23 03:03:27;;;;;;;5.37;4.97;;;9.00;99.90;;;;;;4973844;28;20277;-67
2022/11/23 03:05:53;;;;;;;5.40;5.20;;;9.00;99.90;;;;;;4971433;28;20252;-67
2022/11/23 03:08:18;;;;;;;5.30;4.87;;;9.00;99.90;;;;;;4973690;28;20185;-67
2022/11/23 03:10:44;;;;;;;5.97;5.60;;;9.00;99.90;;;;;;4973401;28;20217;-67
2022/11/23 03:13:09;;;;;;;6.70;6.20;;;9.00;99.90;;;;;;4973605;28;20213;-67
2022/11/23 03:15:35;;;;;;;7.10;5.23;;;9.00;99.90;;;;;;4973673;28;20246;-67
2022/11/23 03:18:00;;;;;;;5.20;4.90;;;9.00;99.90;;;;;;4973673;28;20200;-67
2022/11/23 03:20:26;;;;;;;5.40;4.90;;;9.00;99.90;;;;;;4972090;28;20605;-67
2022/11/23 03:22:52;;;;;;;5.13;4.93;;;8.90;99.90;;;;;;4982249;28;20177;-67
2022/11/23 03:25:18;;;;;;;5.67;5.37;;;8.90;99.90;;;;;;4982819;28;20177;-67
2022/11/23 03:27:43;;;;;;;4.30;4.10;;;8.90;99.90;;;;;;4980125;28;20213;-67
2022/11/23 03:30:09;;;;;;;7.67;5.50;;;8.90;99.90;;;;;;4972862;28;20209;-67
2022/11/23 03:32:36;;;;;;;7.90;5.37;;;8.90;99.90;;;;;;4973272;28;20694;-67
2022/11/23 03:35:03;;;;;;;5.40;5.00;;;8.90;99.90;;;;;;4973309;28;20177;-67
2022/11/23 03:37:28;;;;;;;5.30;4.90;;;8.90;99.90;;;;;;4970957;28;20193;-67
2022/11/23 03:39:54;;;;;;;5.13;4.93;;;8.80;99.90;;;;;;4972866;28;20189;-67
2022/11/23 03:42:19;;;;;;;5.23;4.73;;;8.90;99.90;;;;;;4972913;28;20201;-67
2022/11/23 03:44:45;;;;;;;5.30;5.00;;;8.90;99.90;;;;;;4972953;28;20209;-67
2022/11/23 03:47:13;;;;;;;5.67;5.17;;;8.90;99.90;;;;;;4972954;28;20186;-67
2022/11/23 03:49:38;;;;;;;5.23;4.73;;;8.90;99.90;;;;;;4972811;28;20292;-67
2022/11/23 03:52:04;;;;;;;5.10;4.90;;;8.90;99.90;;;;;;4972813;28;20272;-67
2022/11/23 03:54:30;;;;;;;5.43;5.13;;;8.90;99.90;;;;;;4972841;28;20627;-67
2022/11/23 03:56:55;;;;;;;5.07;4.87;;;8.90;99.90;;;;;;4972967;28;20205;-67
2022/11/23 03:59:21;;;;;;;4.70;4.50;;;8.90;99.90;;;;;;4972613;28;20193;-67
2022/11/23 04:01:46;;;;;;;6.10;5.50;;;9.00;99.90;;;;;;4972945;28;20219;-67
2022/11/23 04:04:12;;;;;;;7.63;5.70;;;8.90;99.90;;;;;;4972830;28;20173;-67
2022/11/23 04:06:38;;;;;;;5.47;4.97;;;8.90;99.90;;;;;;4972105;28;20256;-67
2022/11/23 04:09:03;;;;;;;5.13;4.93;;;8.90;99.90;;;;;;4970569;28;20189;-67
2022/11/23 04:11:29;;;;;;;8.70;5.13;;;9.00;99.90;;;;;;4972442;28;20208;-67
2022/11/23 04:13:55;;;;;;;5.40;5.00;;;9.00;99.90;;;;;;4972862;28;20169;-67
2022/11/23 04:16:20;;;;;;;6.33;5.60;;;8.90;99.90;;;;;;4972661;28;20575;-67
2022/11/23 04:18:46;;;;;;;5.63;5.33;;;9.00;99.90;;;;;;4972585;28;20268;-67
2022/11/23 04:21:11;;;;;;;7.43;4.57;;;9.00;99.90;;;;;;4971402;28;20303;-67
2022/11/23 04:23:37;;;;;;;5.10;4.80;;;9.00;99.90;;;;;;4972526;28;20683;-68
2022/11/23 04:26:03;;;;;;;4.80;4.60;;;9.00;99.90;;;;;;4972525;28;20842;-66
2022/11/23 04:28:28;;;;;;;5.53;5.23;;;8.90;99.90;;;;;;4972461;28;20181;-67
2022/11/23 04:30:54;;;;;;;6.90;5.03;;;8.90;99.90;;;;;;4972697;28;20706;-67
2022/11/23 04:33:19;;;;;;;4.87;4.63;;;9.00;99.90;;;;;;4972477;28;20216;-67
2022/11/23 04:35:45;;;;;;;5.20;4.90;;;9.00;99.90;;;;;;4972590;28;20173;-67
2022/11/23 04:38:10;;;;;;;6.03;5.70;;;9.00;99.90;;;;;;4972588;28;20268;-67
2022/11/23 04:40:36;;;;;;;6.30;5.90;;;9.00;99.90;;;;;;4970001;28;20672;-67
2022/11/23 04:43:02;;;;;;;7.20;6.60;;;9.00;99.90;;;;;;4972558;28;20515;-67
2022/11/23 04:45:27;;;;;;;8.33;5.17;;;9.00;99.90;;;;;;4971224;28;20607;-67
2022/11/23 04:47:53;;;;;;;6.07;5.60;;;9.00;99.90;;;;;;4972613;28;20268;-67
2022/11/23 04:50:19;;;;;;;7.57;5.03;;;8.90;99.90;;;;;;4971899;28;20240;-67
2022/11/23 04:52:44;;;;;;;7.57;6.80;;;8.90;99.90;;;;;;4972356;28;20547;-67
2022/11/23 04:55:10;;;;;;;6.87;6.53;;;8.90;99.90;;;;;;4972259;28;20616;-67
2022/11/23 04:57:35;;;;;;;5.67;5.27;;;8.90;99.90;;;;;;4972373;28;20183;-67
2022/11/23 05:00:03;;;;;;;5.27;4.67;;;8.90;99.90;;;;;;4972024;28;20173;-67
2022/11/23 05:02:28;;;;;;;5.30;4.83;;;8.90;99.90;;;;;;4972112;28;20201;-68
2022/11/23 05:04:54;;;;;;;5.07;4.87;;;9.00;99.90;;;;;;4972373;28;20192;-67
2022/11/23 05:07:19;;;;;;;5.10;4.73;;;9.00;99.90;;;;;;4972253;28;20184;-67
2022/11/23 05:09:45;;;;;;;5.00;4.60;;;9.00;99.90;;;;;;4969771;28;20687;-67
2022/11/23 05:12:11;;;;;;;4.57;4.27;;;9.00;99.90;;;;;;4972213;28;20197;-67
2022/11/23 05:14:36;;;;;;;7.43;4.70;;;9.10;99.90;;;;;;4972149;28;20216;-67
2022/11/23 05:17:02;;;;;;;5.20;4.90;;;9.00;99.90;;;;;;4972290;28;20262;-67
2022/11/23 05:19:27;;;;;;;5.57;5.17;;;9.00;99.90;;;;;;4975154;28;20196;-68
2022/11/23 05:21:53;;;;;;;5.27;5.07;;;9.00;99.90;;;;;;4975507;28;20224;-68
2022/11/23 05:24:18;;;;;;;5.20;4.90;;;9.00;99.90;;;;;;4975737;28;20587;-68
2022/11/23 05:26:44;;;;;;;4.90;4.70;;;9.00;99.90;;;;;;4975928;28;20209;-68
2022/11/23 05:29:10;;;;;;;5.03;4.83;;;8.90;99.90;;;;;;4975376;28;20228;-67
2022/11/23 05:31:35;;;;;;;4.90;4.70;;;8.90;99.90;;;;;;4975674;28;20225;-67
2022/11/23 05:34:01;;;;;;;5.20;4.97;;;8.90;99.90;;;;;;4975685;28;20246;-67
2022/11/23 05:36:26;;;;;;;5.10;4.53;;;8.80;99.90;;;;;;4974277;28;20185;-67
2022/11/23 05:38:52;;;;;;;5.23;4.93;;;8.80;99.90;;;;;;4975082;28;20650;-67
2022/11/23 05:41:17;;;;;;;5.97;5.33;;;8.80;99.90;;;;;;4971467;28;20202;-67
2022/11/23 05:43:43;;;;;;;5.10;4.90;;;8.80;99.90;;;;;;4974428;28;20185;-67
2022/11/23 05:46:10;;;;;;;8.13;5.20;;;8.70;99.90;;;;;;4975075;28;20648;-67
2022/11/23 05:48:35;;;;;;;5.30;5.00;;;8.70;99.90;;;;;;4975283;28;20185;-68
2022/11/23 05:51:01;;;;;;;5.40;5.20;;;8.60;99.90;;;;;;4974672;28;20691;-68
2022/11/23 05:53:26;;;;;;;5.60;5.20;;;8.60;99.90;;;;;;4973943;28;20181;-67
2022/11/23 05:55:52;;;;;;;5.30;5.10;;;8.60;99.90;;;;;;4975242;28;20632;-68
2022/11/23 05:58:18;;;;;;;6.83;6.37;;;8.60;99.90;;;;;;4974964;28;20171;-67
2022/11/23 06:00:43;;;;;;;10.00;5.50;;;8.60;99.90;;;;;;4974692;28;20201;-68
2022/11/23 06:03:09;;;;;;;6.60;6.00;;;8.60;99.90;;;;;;4973635;28;20628;-68
2022/11/23 06:05:34;;;;;;;5.40;5.20;;;8.60;99.90;;;;;;4975055;28;20177;-68
2022/11/23 06:08:00;;;;;;;6.37;5.63;;;8.60;99.90;;;;;;4974969;28;20212;-67
2022/11/23 06:10:26;;;;;;;10.70;5.33;;;8.60;99.90;;;;;;4974482;28;20570;-67
2022/11/23 06:12:51;;;;;;;5.87;5.37;;;8.60;99.90;;;;;;4973442;28;20178;-67
2022/11/23 06:15:17;;;;;;;10.47;5.80;;;8.60;99.90;;;;;;4975568;28;20174;-67
2022/11/23 06:17:43;;;;;;;6.00;5.33;;;8.60;99.90;;;;;;4975482;28;20184;-67
2022/11/23 06:20:09;;;;;;;5.97;5.67;;;8.60;99.90;;;;;;4974238;28;20193;-67
2022/11/23 06:22:35;;;;;;;5.53;5.03;;;8.60;99.90;;;;;;4976298;28;20216;-67
2022/11/23 06:25:01;;;;;;;9.20;6.13;;;8.60;99.90;;;;;;4975625;28;20208;-67
2022/11/23 06:27:26;;;;;;;13.83;5.40;;;8.60;99.90;;;;;;4975209;28;20193;-67
2022/11/23 06:29:52;;;;;;;7.70;5.67;;;8.60;99.90;;;;;;4974239;28;20221;-68
2022/11/23 06:32:18;;;;;;;5.20;5.00;;;8.60;99.90;;;;;;4976492;28;20711;-68
2022/11/23 06:34:43;;;;;;;6.13;5.63;;;8.60;99.90;;;;;;4992637;28;20177;-67
2022/11/23 06:37:09;;;;;;;6.53;6.13;;;8.50;99.90;;;;;;4992573;28;20666;-68
2022/11/23 06:39:35;;;;;;;6.57;6.00;;;8.50;99.90;;;;;;4982458;28;20640;-67
2022/11/23 06:42:01;;;;;;;7.27;6.20;;;8.50;99.90;;;;;;4974342;28;20227;-67
2022/11/23 06:44:26;;;;;;;6.30;5.90;;;8.50;99.90;;;;;;4972148;28;20236;-67
2022/11/23 06:46:52;;;;;;;7.63;5.90;;;8.40;99.90;;;;;;4974497;28;20173;-67
2022/11/23 06:49:19;;;;;;;6.37;5.80;;;8.40;99.90;;;;;;4972717;28;20286;-67
2022/11/23 06:51:45;;;;;;;7.03;6.43;;;8.50;99.90;;;;;;4974523;28;20193;-67
2022/11/23 06:54:11;;;;;;;7.70;5.23;;;8.30;99.90;;;;;;4974660;28;20173;-67
2022/11/23 06:56:36;;;;;;;5.20;4.80;;;8.30;99.90;;;;;;4975953;28;20180;-67
2022/11/23 06:59:02;;;;;;;5.97;5.40;;;8.20;99.90;;;;;;4975692;28;20178;-67
2022/11/23 07:01:27;;;;;;;5.20;4.80;;;8.10;99.90;;;;;;4975326;28;20276;-67
2022/11/23 07:03:53;;;;;;;5.27;4.90;;;8.10;99.90;;;;;;4974958;28;20536;-67
2022/11/23 07:06:19;;;;;;;5.57;5.27;;;8.10;99.90;;;;;;4973624;28;20177;-68
2022/11/23 07:08:44;;;;;;;7.77;4.83;;;8.10;99.90;;;;;;4973902;28;20177;-67
2022/11/23 07:11:11;;;;;;;7.23;5.37;;;8.10;99.90;;;;;;4973128;28;20209;-67
2022/11/23 07:13:37;;;;;;;4.50;4.30;;;8.00;99.90;;;;;;4973829;28;20185;-67
2022/11/23 07:16:03;;;;;;;5.40;5.10;;;8.00;99.90;;;;;;4971431;28;20191;-67
2022/11/23 07:18:29;;;;;;;5.60;5.20;;;7.90;99.90;;;;;;4973568;28;20177;-67
2022/11/23 07:20:58;;;;;;;6.20;5.77;;;7.90;99.90;;;;;;4973209;28;20730;-67
2022/11/23 07:23:23;;;;;;;5.43;5.17;;;7.90;99.90;;;;;;4973425;28;20185;-68
2022/11/23 07:25:49;;;;;;;5.43;5.13;;;7.80;99.90;;;;;;4973711;28;20549;-67
2022/11/23 07:28:15;;;;;;;5.07;4.67;;;7.80;99.90;;;;;;4974863;28;20216;-67
2022/11/23 07:30:41;;;;;;;5.37;5.00;;;7.80;99.90;;;;;;4977029;28;20205;-67
2022/11/23 07:33:09;;;;;;;6.60;5.47;;;7.80;99.90;;;;;;4977031;28;20277;-67
2022/11/23 07:35:36;;;;;;;5.83;5.63;;;7.80;99.90;;;;;;4977257;28;20646;-67
2022/11/23 07:38:02;;;;;;;11.70;5.37;;;7.70;99.90;;;;;;4976643;28;20178;-67
2022/11/23 07:40:28;;;;;;;5.67;5.43;;;7.70;99.90;;;;;;4975634;28;20177;-67
2022/11/23 07:42:59;;;;;;;6.70;6.23;;;7.70;99.90;;;;;;4976930;28;20264;-66
2022/11/23 07:45:25;;;;;;;7.17;6.43;;;7.70;99.90;;;;;;4975691;28;20203;-67
2022/11/23 07:48:01;;;;;;;8.70;5.30;;;7.60;99.90;;;;;;4975772;28;20591;-67
2022/11/23 07:50:27;;;;;;;7.10;6.50;;;7.60;99.90;;;;;;4975445;28;20255;-67
2022/11/23 07:52:53;;;;;;;8.27;6.10;;;7.60;99.90;;;;;;4975895;28;20189;-67
2022/11/23 07:55:18;;;;;;;7.23;6.50;;;7.60;99.90;;;;;;4975682;28;20181;-67
2022/11/23 07:57:44;;;;;;;6.50;6.17;;;7.60;99.90;;;;;;4975313;28;20185;-67
2022/11/23 08:00:11;;;;;;;7.60;7.00;;;7.70;99.90;;;;;;4975202;28;20173;-67
2022/11/23 08:02:36;;;;;;;8.97;7.30;;;7.70;99.90;;;;;;4975514;28;20200;-67
2022/11/23 08:05:02;;;;;;;7.40;6.87;;;7.70;99.90;;;;;;4976368;28;20181;-67
2022/11/23 08:07:28;;;;;;;7.17;6.60;;;7.80;99.90;;;;;;4976314;28;20656;-67
2022/11/23 08:09:53;;;;;;;6.57;6.00;;;7.80;99.90;;;;;;4976510;28;20599;-68
2022/11/23 08:12:19;;;;;;;10.23;6.57;;;7.90;99.90;;;;;;4976088;28;20674;-67
2022/11/23 08:14:44;;;;;;;5.73;5.47;;;7.90;99.90;;;;;;4976123;28;20181;-67
2022/11/23 08:17:10;;;;;;;7.30;5.73;;;8.00;99.90;;;;;;4975651;28;20572;-67
2022/11/23 08:19:35;;;;;;;6.57;4.87;;;8.10;99.90;;;;;;4975541;28;20177;-67
2022/11/23 08:22:01;;;;;;;9.37;5.23;;;8.30;99.90;;;;;;4976221;28;20217;-67
2022/11/23 08:24:27;;;;;;;5.83;5.43;;;8.50;99.90;;;;;;4976061;28;20212;-67
2022/11/23 08:26:52;;;;;;;5.17;4.77;;;8.70;99.90;;;;;;4976406;28;20189;-67
2022/11/23 08:29:18;;;;;;;6.50;6.00;;;9.10;99.90;;;;;;4975390;28;20236;-67
2022/11/23 08:31:43;;;;;;;4.57;4.27;;;9.50;99.90;;;;;;4976133;28;20229;-67
2022/11/23 08:34:09;;;;;;;6.73;4.60;;;9.90;99.90;;;;;;4975748;28;20519;-68
2022/11/23 08:36:36;;;;;;;5.83;4.97;;;10.10;99.90;;;;;;4976196;28;20174;-67
2022/11/23 08:39:02;;;;;;;6.57;4.77;;;10.40;99.90;;;;;;4976373;28;20173;-67
2022/11/23 08:41:27;;;;;;;5.30;4.90;;;10.50;99.90;;;;;;4976125;28;20200;-67
2022/11/23 08:43:53;;;;;;;5.97;4.17;;;10.60;85.60;;;;;;4974488;28;20181;-67
2022/11/23 08:46:18;;;;;;;6.20;4.53;;;10.70;60.00;;;;;;4975278;28;20184;-67
2022/11/23 08:48:44;;;;;;;10.97;4.60;;;10.80;61.00;;;;;;4976130;28;20232;-67
2022/11/23 08:51:10;;;;;;;4.17;3.87;;;10.90;59.90;;;;;;4975277;28;20244;-67
2022/11/23 08:53:36;;;;;;;4.50;4.10;;;11.10;29.80;;;;;;4992567;28;20182;-66
2022/11/23 08:56:06;;;;;;;7.03;4.10;;;11.10;25.90;;;;;;4981212;28;20207;-67
2022/11/23 08:58:32;;;;;;;4.50;4.20;;;11.30;13.60;;;;;;4979946;28;20184;-66
2022/11/23 09:00:58;;;;;;;6.77;3.60;;;11.40;14.80;;;;;;4979519;28;20193;-67
2022/11/23 09:03:23;;;;;;;4.60;4.20;;;11.70;1.00;;;;;;4979512;28;20189;-67
2022/11/23 09:05:50;;;;;;;3.87;3.57;;;11.80;1.00;;;;;;4980685;28;20181;-67
2022/11/23 09:08:16;;;;;;;3.87;3.60;;;12.00;1.00;;;;;;4979896;28;20683;-67
2022/11/23 09:10:42;;;;;;;7.23;4.23;;;12.10;1.00;;;;;;4978994;28;20209;-67
2022/11/23 09:13:08;;;;;;;5.17;3.90;;;12.30;1.00;;;;;;4979896;28;20185;-67
2022/11/23 09:15:34;;;;;;;4.37;4.03;;;12.40;1.00;;;;;;4979484;28;20177;-67
2022/11/23 09:17:59;;;;;;;6.07;4.20;;;12.40;1.00;;;;;;4979127;28;20178;-67
2022/11/23 09:20:25;;;;;;;9.73;4.70;;;12.40;99.90;;;;;;4980206;28;20638;-67
2022/11/23 09:22:54;;;;;;;3.83;3.57;;;12.50;1.00;;;;;;4980419;28;20250;-67
2022/11/23 09:25:21;;;;;;;4.13;3.80;;;12.60;1.00;;;;;;4979405;28;20213;-67
2022/11/23 09:27:48;;;;;;;4.80;3.50;;;12.70;99.90;;;;;;4980329;28;20177;-67
2022/11/23 09:30:14;;;;;;;4.27;3.97;;;12.70;99.90;;;;;;4980588;28;20675;-67
2022/11/23 09:32:40;;;;;;;5.47;4.17;;;12.80;25.80;;;;;;4982039;28;20181;-67
2022/11/23 09:35:06;;;;;;;4.97;3.90;;;12.70;1.00;;;;;;4981742;28;20169;-67
2022/11/23 09:37:31;;;;;;;4.33;4.03;;;12.80;10.80;;;;;;4980962;28;20656;-66
2022/11/23 09:39:57;;;;;;;7.50;4.10;;;13.00;1.00;;;;;;4981160;28;20184;-67
2022/11/23 09:42:34;;;;;;;4.00;3.70;;;13.10;1.00;;;;;;4981101;28;20633;-67
2022/11/23 09:45:28;;;;;;;5.90;4.90;;;13.10;1.00;;;;;;4984274;28;20540;-66
2022/11/23 09:48:03;;;;;;;4.40;3.90;;;13.10;1.00;;;;;;4989714;28;20174;-67
2022/11/23 09:50:53;;;;;;;4.57;4.17;;;13.10;1.00;;;;;;4982723;28;20204;-66
2022/11/23 09:53:23;;;;;;;5.43;4.03;;;13.00;1.00;;;;;;4974880;28;20651;-66
2022/11/23 09:55:53;;;;;;;10.00;4.00;;;12.90;1.00;;;;;;4978587;28;20182;-66
2022/11/23 09:58:24;;;;;;;4.13;3.87;;;12.60;1.00;;;;;;4975117;28;20197;-66
2022/11/23 10:00:57;;;;;;;4.40;4.07;;;12.50;1.00;;;;;;4977859;28;20734;-67
2022/11/23 10:03:23;;;;;;;4.40;4.00;;;12.50;1.00;;;;;;4976640;28;20217;-66
2022/11/23 10:06:13;;;;;;;4.53;3.87;;;12.50;1.00;;;;;;4975733;28;20224;-67
2022/11/23 10:09:13;;;;;;;5.57;4.17;;;12.80;1.00;;;;;;4975187;28;20596;-66
2022/11/23 10:11:51;;;;;;;8.53;4.03;;;13.00;1.00;;;;;;4978562;28;20240;-67
2022/11/23 10:14:32;;;;;;;4.00;3.70;;;13.10;1.00;;;;;;4975814;28;20551;-66
2022/11/23 10:17:03;;;;;;;4.57;4.27;;;13.20;1.00;;;;;;4978559;28;20174;-67
2022/11/23 10:19:46;;;;;;;6.57;4.20;;;13.30;1.00;;;;;;4978619;28;20236;-67
2022/11/23 10:22:19;;;;;;;4.17;3.77;;;13.50;1.00;;;;;;4976302;28;20223;-67
2022/11/23 10:24:51;;;;;;;5.03;3.97;;;13.60;1.00;;;;;;4975642;28;20181;-67
2022/11/23 10:27:19;;;;;;;4.90;4.07;;;13.50;1.00;;;;;;4977999;28;20256;-67
2022/11/23 10:29:45;;;;;;;6.40;4.13;;;13.20;1.00;;;;;;4978732;28;20674;-67
2022/11/23 10:32:40;;;;;;;9.67;5.27;;;12.90;1.00;;;;;;4977752;28;20272;-67
2022/11/23 10:35:16;;;;;;;8.30;4.40;;;12.60;1.00;;;;;;4954080;28;20193;-66
2022/11/23 10:37:42;;;;;;;4.70;4.37;;;12.60;1.00;;;;;;4978440;28;20682;-67
2022/11/23 10:40:24;;;;;;;3.80;3.33;;;12.60;1.00;;;;;;4976627;28;20215;-67
2022/11/23 10:42:57;;;;;;;3.97;3.77;;;12.50;1.00;;;;;;4976580;28;20562;-67
2022/11/23 10:45:27;;;;;;;6.63;3.60;;;12.40;1.00;;;;;;4976775;28;20189;-66
2022/11/23 10:47:57;;;;;;;4.13;3.83;;;12.50;1.00;;;;;;4977844;28;20654;-67
2022/11/23 10:50:32;;;;;;;4.73;4.27;;;12.90;1.00;;;;;;4976801;28;20222;-67
2022/11/23 10:53:16;;;;;;;5.73;4.00;;;13.10;1.00;;;;;;4978088;28;20169;-68
2022/11/23 10:56:00;;;;;;;4.43;4.13;;;13.30;1.00;;;;;;4976858;28;20174;-67
2022/11/23 10:58:33;;;;;;;4.13;3.73;;;13.40;1.00;;;;;;4977937;28;20205;-67
2022/11/23 11:01:30;;;;;;;4.50;4.03;;;13.50;1.00;;;;;;4976807;28;20197;-67
2022/11/23 11:04:03;;;;;;;4.43;4.20;;;13.50;1.00;;;;;;4974505;28;20200;-67
2022/11/23 11:06:32;;;;;;;5.97;4.60;;;13.50;1.00;;;;;;4976358;28;20189;-67
2022/11/23 11:09:01;;;;;;;4.77;4.17;;;13.50;1.00;;;;;;4976526;28;20653;-67
2022/11/23 11:11:36;;;;;;;4.37;3.97;;;13.40;1.00;;;;;;4974987;28;20669;-67
2022/11/23 11:14:15;;;;;;;5.53;3.80;;;13.40;1.00;;;;;;4977321;28;20267;-67
2022/11/23 11:17:23;;;;;;;4.23;3.80;;;13.40;1.00;;;;;;4976751;28;20262;-67
2022/11/23 11:19:49;;;;;;;4.40;4.00;;;13.60;1.00;;;;;;4978528;28;20181;-67
2022/11/23 11:22:33;;;;;;;4.53;4.13;;;13.50;1.00;;;;;;4977197;28;20222;-67
2022/11/23 11:25:00;;;;;;;4.33;4.03;;;13.20;1.00;;;;;;4978246;28;20559;-66
2022/11/23 11:27:29;;;;;;;4.23;3.80;;;12.90;1.00;;;;;;4977447;28;20579;-67
2022/11/23 11:30:00;;;;;;;4.13;3.83;;;12.70;1.00;;;;;;4977791;28;20202;-67
2022/11/23 11:32:43;;;;;;;4.37;4.17;;;12.40;1.00;;;;;;4977818;28;20201;-67
2022/11/23 11:35:19;;;;;;;4.50;4.20;;;12.10;1.00;;;;;;4977451;28;20232;-67
2022/11/23 11:37:47;;;;;;;5.63;4.00;;;11.90;1.00;;;;;;4978018;28;20177;-67
2022/11/23 11:40:22;;;;;;;4.10;3.90;;;11.60;1.00;;;;;;4976750;28;20212;-66
2022/11/23 11:42:48;;;;;;;4.93;4.00;;;11.50;1.00;;;;;;4975849;28;20271;-67
2022/11/23 11:45:27;;;;;;;5.10;3.90;;;11.60;1.00;;;;;;4977156;28;20208;-67
2022/11/23 11:48:03;;;;;;;3.70;3.50;;;11.60;1.00;;;;;;4976211;28;20188;-66
2022/11/23 11:50:33;;;;;;;8.63;3.57;;;11.70;1.00;;;;;;4977083;28;20212;-66
2022/11/23 11:53:16;;;;;;;4.20;3.80;;;11.80;1.00;;;;;;4977942;28;20179;-66
2022/11/23 11:55:51;;;;;;;4.30;3.47;;;11.90;1.00;;;;;;4977604;28;20170;-66
2022/11/23 11:58:18;;;;;;;3.40;3.30;;;12.00;1.00;;;;;;4977248;28;20172;-67
2022/11/23 12:00:47;;;;;;;3.90;3.70;;;11.70;1.00;;;;;;4976448;28;20671;-67
2022/11/23 12:03:45;;;;;;;6.23;3.87;;;11.50;1.00;;;;;;4976844;28;20177;-67
2022/11/23 12:06:50;;;;;;;7.03;4.30;;;11.40;1.00;;;;;;4978167;28;20181;-67
2022/11/23 12:09:20;;;;;;;5.73;5.50;;;11.10;1.00;;;;;;4943818;28;20681;-67
2022/11/23 12:11:46;;;;;;;6.60;3.70;;;11.00;1.00;;;;;;4976883;28;20685;-67
2022/11/23 12:14:14;;;;;;;4.00;3.80;;;11.00;1.00;;;;;;4974196;28;20178;-67
2022/11/23 12:17:18;;;;;;;6.70;4.00;;;11.10;1.00;;;;;;4977226;28;20495;-67
2022/11/23 12:20:05;;;;;;;4.70;4.43;;;11.30;1.00;;;;;;4946902;28;20197;-67
2022/11/23 12:22:48;;;;;;;4.93;4.53;;;11.40;1.00;;;;;;4977169;28;20221;-68
2022/11/23 12:25:47;;;;;;;4.00;3.70;;;11.20;1.00;;;;;;4974087;28;20550;-68
2022/11/23 12:28:44;;;;;;;4.43;4.13;;;11.40;1.00;;;;;;4975704;28;20188;-67
2022/11/23 12:31:25;;;;;;;5.37;4.00;;;11.50;1.00;;;;;;4970954;28;20212;-68
2022/11/23 12:33:59;;;;;;;4.87;4.30;;;11.60;1.00;;;;;;4972672;28;20184;-67
2022/11/23 12:36:34;;;;;;;7.20;3.90;;;11.70;1.00;;;;;;4972255;28;20186;-67
2022/11/23 12:39:02;;;;;;;4.33;4.03;;;11.70;1.00;;;;;;4972750;28;20181;-67
2022/11/23 12:41:33;;;;;;;4.30;4.00;;;11.80;1.00;;;;;;4972310;28;20212;-67
2022/11/23 12:44:23;;;;;;;4.57;4.37;;;11.80;1.00;;;;;;4972609;28;20257;-66
2022/11/23 12:47:02;;;;;;;7.13;3.80;;;11.80;1.00;;;;;;4972566;28;20182;-68
2022/11/23 12:49:50;;;;;;;3.73;3.43;;;11.90;1.00;;;;;;4972148;28;20208;-67
2022/11/23 12:52:40;;;;;;;3.73;3.47;;;12.00;1.00;;;;;;4972491;28;20671;-67
2022/11/23 12:55:16;;;;;;;6.60;4.03;;;12.00;1.00;;;;;;4972484;28;20632;-68
2022/11/23 12:58:03;;;;;;;5.03;3.70;;;12.00;1.00;;;;;;4972469;28;20261;-67
2022/11/23 13:00:44;;;;;;;3.43;3.30;;;12.20;1.00;;;;;;4971916;28;20181;-67
2022/11/23 13:03:43;;;;;;;4.10;3.80;;;12.10;1.00;;;;;;4972317;28;20174;-66
2022/11/23 13:06:35;;;;;;;4.10;3.80;;;12.20;1.00;;;;;;4972345;28;20213;-68